createdAt,value
2023-04-03T00:00:36.259Z,2.08
2023-04-03T00:03:03.237Z,2.47
2023-04-03T00:05:29.872Z,2.17
2023-04-03T00:07:56.473Z,2.10
2023-04-03T00:10:23.234Z,1.77
2023-04-03T00:12:49.750Z,2.20
2023-04-03T00:15:16.647Z,2.03
2023-04-03T00:17:43.220Z,1.60
2023-04-03T00:20:10.435Z,2.35
2023-04-03T00:22:37.066Z,1.63
2023-04-03T00:25:04.349Z,1.60
2023-04-03T00:27:31.030Z,1.83
2023-04-03T00:29:57.603Z,1.67
2023-04-03T00:32:24.186Z,1.75
2023-04-03T00:34:50.976Z,1.30
2023-04-03T00:37:17.542Z,1.30
2023-04-03T00:39:44.051Z,1.60
2023-04-03T00:42:10.696Z,1.20
2023-04-03T00:44:37.131Z,1.52
2023-04-03T00:47:07.794Z,1.73
2023-04-03T00:49:35.148Z,1.45
2023-04-03T00:52:02.337Z,1.75
2023-04-03T00:54:28.977Z,1.20
2023-04-03T00:56:58.218Z,1.20
2023-04-03T00:59:31.127Z,1.42
2023-04-03T01:01:58.030Z,0.98
2023-04-03T01:04:37.086Z,1.75
2023-04-03T01:07:25.366Z,1.35
2023-04-03T01:09:56.712Z,1.45
2023-04-03T01:12:24.848Z,1.42
2023-04-03T01:14:54.518Z,1.17
2023-04-03T01:17:31.353Z,1.48
2023-04-03T01:20:36.927Z,1.65
2023-04-03T01:23:09.788Z,1.50
2023-04-03T01:25:48.780Z,1.50
2023-04-03T01:28:25.287Z,1.38
2023-04-03T01:31:36.650Z,1.20
2023-04-03T01:34:03.460Z,1.42
2023-04-03T01:36:32.401Z,1.25
2023-04-03T01:39:00.640Z,1.35
2023-04-03T01:41:28.448Z,0.95
2023-04-03T01:44:01.180Z,1.50
2023-04-03T01:46:27.873Z,1.50
2023-04-03T01:48:54.615Z,1.15
2023-04-03T01:51:21.325Z,1.00
2023-04-03T01:53:48.066Z,1.65
2023-04-03T01:56:14.582Z,1.20
2023-04-03T01:58:41.150Z,1.00
2023-04-03T02:01:07.788Z,1.00
2023-04-03T02:03:34.549Z,1.55
2023-04-03T02:06:01.138Z,1.08
2023-04-03T02:08:27.719Z,1.05
2023-04-03T02:10:54.312Z,1.35
2023-04-03T02:13:20.926Z,1.02
2023-04-03T02:15:48.617Z,1.33
2023-04-03T02:18:17.600Z,1.15
2023-04-03T02:20:44.774Z,1.38
2023-04-03T02:23:11.521Z,0.90
2023-04-03T02:25:38.847Z,1.40
2023-04-03T02:28:06.177Z,0.95
2023-04-03T02:30:32.736Z,1.55
2023-04-03T02:32:59.398Z,1.58
2023-04-03T02:35:27.072Z,1.00
2023-04-03T02:37:56.600Z,0.80
2023-04-03T02:40:23.465Z,1.08
2023-04-03T02:42:50.885Z,0.95
2023-04-03T02:45:19.053Z,1.92
2023-04-03T02:47:45.884Z,1.38
2023-04-03T02:50:12.628Z,1.13
2023-04-03T02:52:39.201Z,1.65
2023-04-03T02:55:06.788Z,1.05
2023-04-03T02:57:33.561Z,1.25
2023-04-03T03:00:00.560Z,1.35
2023-04-03T03:02:27.235Z,1.33
2023-04-03T03:04:53.791Z,1.30
2023-04-03T03:07:20.659Z,1.33
2023-04-03T03:09:47.201Z,1.25
2023-04-03T03:12:13.772Z,1.30
2023-04-03T03:14:40.449Z,1.35
2023-04-03T03:17:07.045Z,1.10
2023-04-03T03:19:34.005Z,1.35
2023-04-03T03:22:00.928Z,1.08
2023-04-03T03:24:27.457Z,1.60
2023-04-03T03:26:54.015Z,1.30
2023-04-03T03:29:20.670Z,1.27
2023-04-03T03:31:47.335Z,1.00
2023-04-03T03:34:14.071Z,1.30
2023-04-03T03:36:40.708Z,1.25
2023-04-03T03:39:07.353Z,1.20
2023-04-03T03:41:34.012Z,1.23
2023-04-03T03:44:01.305Z,1.48
2023-04-03T03:46:30.183Z,1.27
2023-04-03T03:48:56.797Z,1.20
2023-04-03T03:51:23.581Z,1.38
2023-04-03T03:53:50.552Z,1.45
2023-04-03T03:56:19.411Z,1.38
2023-04-03T03:58:46.672Z,1.77
2023-04-03T04:01:13.685Z,0.98
2023-04-03T04:03:45.068Z,0.93
2023-04-03T04:06:15.881Z,1.23
2023-04-03T04:08:43.089Z,1.63
2023-04-03T04:11:11.921Z,1.30
2023-04-03T04:13:39.555Z,1.20
2023-04-03T04:16:08.311Z,1.50
2023-04-03T04:18:35.142Z,1.30
2023-04-03T04:21:01.887Z,1.27
2023-04-03T04:23:29.014Z,0.90
2023-04-03T04:25:55.955Z,1.00
2023-04-03T04:28:24.083Z,1.20
2023-04-03T04:30:53.153Z,1.20
2023-04-03T04:33:21.633Z,1.13
2023-04-03T04:35:49.473Z,1.25
2023-04-03T04:38:18.429Z,1.80
2023-04-03T04:40:45.529Z,1.10
2023-04-03T04:43:15.245Z,1.27
2023-04-03T04:45:43.516Z,1.15
2023-04-03T04:48:10.406Z,1.20
2023-04-03T04:50:37.176Z,1.10
2023-04-03T04:53:05.120Z,1.50
2023-04-03T04:55:31.715Z,1.13
2023-04-03T04:57:58.507Z,1.23
2023-04-03T05:00:25.611Z,1.15
2023-04-03T05:02:52.435Z,1.48
2023-04-03T05:05:19.890Z,1.77
2023-04-03T05:07:47.145Z,1.30
2023-04-03T05:10:14.178Z,1.23
2023-04-03T05:12:41.614Z,1.35
2023-04-03T05:15:09.423Z,1.10
2023-04-03T05:17:36.365Z,1.30
2023-04-03T05:20:06.361Z,1.35
2023-04-03T05:22:34.351Z,1.20
2023-04-03T05:25:07.156Z,1.40
2023-04-03T05:27:33.747Z,1.23
2023-04-03T05:30:00.867Z,1.20
2023-04-03T05:32:28.498Z,1.13
2023-04-03T05:35:08.318Z,1.33
2023-04-03T05:37:36.557Z,1.80
2023-04-03T05:40:05.349Z,1.50
2023-04-03T05:42:32.580Z,2.10
2023-04-03T05:44:59.225Z,1.67
2023-04-03T05:47:25.847Z,1.00
2023-04-03T05:49:52.846Z,0.90
2023-04-03T05:52:30.319Z,1.40
2023-04-03T05:54:57.017Z,1.42
2023-04-03T05:57:26.981Z,1.80
2023-04-03T05:59:53.624Z,1.50
2023-04-03T06:02:24.033Z,2.80
2023-04-03T06:04:52.104Z,1.30
2023-04-03T06:07:23.551Z,1.27
2023-04-03T06:09:52.148Z,1.17
2023-04-03T06:12:20.034Z,1.40
2023-04-03T06:14:47.435Z,1.50
2023-04-03T06:17:16.251Z,1.35
2023-04-03T06:19:43.193Z,1.08
2023-04-03T06:22:10.065Z,1.30
2023-04-03T06:24:36.910Z,1.10
2023-04-03T06:27:03.608Z,1.30
2023-04-03T06:29:30.566Z,1.13
2023-04-03T06:31:57.717Z,1.48
2023-04-03T06:34:24.356Z,1.38
2023-04-03T06:36:51.573Z,1.70
2023-04-03T06:39:24.223Z,1.27
2023-04-03T06:41:52.074Z,1.60
2023-04-03T06:46:53.512Z,1.00
2023-04-03T06:49:20.538Z,0.80
2023-04-03T06:51:47.234Z,0.95
2023-04-03T06:54:13.937Z,1.10
2023-04-03T06:56:40.588Z,1.08
2023-04-03T06:59:07.326Z,1.60
2023-04-03T07:01:34.440Z,1.13
2023-04-03T07:04:01.256Z,1.27
2023-04-03T07:06:28.029Z,1.10
2023-04-03T07:08:55.844Z,1.23
2023-04-03T07:11:23.304Z,1.30
2023-04-03T07:13:50.364Z,1.25
2023-04-03T07:16:16.942Z,1.23
2023-04-03T07:18:43.641Z,1.42
2023-04-03T07:21:10.340Z,1.10
2023-04-03T07:23:37.353Z,1.17
2023-04-03T07:26:04.251Z,1.42
2023-04-03T07:28:31.172Z,1.13
2023-04-03T07:31:08.178Z,0.95
2023-04-03T07:33:35.886Z,1.50
2023-04-03T07:36:03.213Z,1.55
2023-04-03T07:38:30.065Z,1.23
2023-04-03T07:40:56.607Z,1.58
2023-04-03T07:43:23.454Z,1.50
2023-04-03T07:45:51.764Z,1.20
2023-04-03T07:48:23.673Z,1.10
2023-04-03T07:50:50.790Z,1.73
2023-04-03T07:53:18.090Z,1.17
2023-04-03T07:55:47.625Z,1.17
2023-04-03T07:58:17.931Z,1.10
2023-04-03T08:00:46.270Z,1.17
2023-04-03T08:03:13.860Z,1.15
2023-04-03T08:05:42.450Z,1.23
2023-04-03T08:08:10.803Z,1.42
2023-04-03T08:10:37.884Z,1.48
2023-04-03T08:13:05.710Z,1.35
2023-04-03T08:15:32.756Z,1.35
2023-04-03T08:18:00.501Z,1.30
2023-04-03T08:20:27.837Z,1.08
2023-04-03T08:22:54.965Z,1.10
2023-04-03T08:25:21.995Z,1.40
2023-04-03T08:27:48.730Z,1.33
2023-04-03T08:30:15.387Z,1.42
2023-04-03T08:32:45.341Z,1.23
2023-04-03T08:35:12.540Z,1.30
2023-04-03T08:37:40.789Z,1.27
2023-04-03T08:40:13.814Z,1.33
2023-04-03T08:42:52.416Z,1.10
2023-04-03T08:45:32.521Z,1.10
2023-04-03T08:48:21.121Z,1.73
2023-04-03T08:50:53.278Z,1.50
2023-04-03T08:53:29.318Z,1.35
2023-04-03T08:55:56.828Z,1.73
2023-04-03T08:58:26.988Z,1.05
2023-04-03T09:01:07.246Z,0.75
2023-04-03T09:03:38.313Z,1.20
2023-04-03T09:06:11.216Z,1.13
2023-04-03T09:08:44.001Z,1.20
2023-04-03T09:11:11.053Z,1.20
2023-04-03T09:13:58.498Z,0.90
2023-04-03T09:16:33.450Z,0.90
2023-04-03T09:19:31.156Z,0.68
2023-04-03T09:21:59.279Z,1.20
2023-04-03T09:24:26.350Z,0.90
2023-04-03T09:27:04.563Z,0.75
2023-04-03T09:29:31.444Z,0.52
2023-04-03T09:32:01.726Z,0.80
2023-04-03T09:34:33.774Z,0.57
2023-04-03T09:37:06.799Z,1.15
2023-04-03T09:39:54.201Z,0.55
2023-04-03T09:42:26.168Z,1.00
2023-04-03T09:45:05.447Z,1.05
2023-04-03T09:47:37.173Z,0.57
2023-04-03T09:50:13.569Z,0.73
2023-04-03T09:52:41.832Z,1.05
2023-04-03T09:55:15.284Z,1.00
2023-04-03T09:57:42.519Z,0.68
2023-04-03T10:00:39.095Z,0.73
2023-04-03T10:03:25.571Z,0.57
2023-04-03T10:08:24.914Z,0.65
2023-04-03T10:11:09.102Z,0.70
2023-04-03T10:13:41.988Z,0.80
2023-04-03T10:16:19.552Z,0.88
2023-04-03T10:18:56.569Z,0.65
2023-04-03T10:22:02.142Z,0.70
2023-04-03T10:24:47.122Z,0.95
2023-04-03T10:27:23.897Z,0.35
2023-04-03T10:30:04.680Z,0.65
2023-04-03T10:32:46.723Z,0.85
2023-04-03T10:35:28.435Z,0.80
2023-04-03T10:38:23.869Z,0.60
2023-04-03T10:41:05.326Z,0.60
2023-04-03T10:44:09.154Z,0.52
2023-04-03T10:46:45.016Z,0.60
2023-04-03T10:49:15.958Z,0.40
2023-04-03T10:52:01.644Z,0.80
2023-04-03T10:55:11.547Z,0.70
2023-04-03T10:57:38.671Z,0.40
2023-04-03T11:00:19.157Z,0.85
2023-04-03T11:02:56.364Z,0.77
2023-04-03T11:06:04.720Z,1.25
2023-04-03T11:08:49.304Z,0.68
2023-04-03T11:11:28.181Z,0.50
2023-04-03T11:14:04.242Z,0.82
2023-04-03T11:16:43.613Z,0.70
2023-04-03T11:19:28.247Z,0.40
2023-04-03T11:22:24.866Z,0.82
2023-04-03T11:25:03.449Z,0.80
2023-04-03T11:27:38.889Z,0.60
2023-04-03T11:32:58.909Z,0.60
2023-04-03T11:35:27.360Z,0.77
2023-04-03T11:37:55.090Z,0.75
2023-04-03T11:40:33.977Z,0.85
2023-04-03T11:43:00.623Z,0.95
2023-04-03T11:45:40.176Z,1.50
2023-04-03T11:48:30.491Z,0.70
2023-04-03T11:50:57.617Z,0.82
2023-04-03T11:53:31.582Z,0.90
2023-04-03T11:56:28.503Z,0.60
2023-04-03T11:59:14.335Z,0.95
2023-04-03T12:04:18.741Z,0.93
2023-04-03T12:06:49.817Z,0.90
2023-04-03T12:09:28.325Z,0.65
2023-04-03T12:11:57.403Z,0.68
2023-04-03T12:14:26.667Z,1.00
2023-04-03T12:16:58.394Z,0.63
2023-04-03T12:19:42.607Z,0.65
2023-04-03T12:22:16.784Z,0.57
2023-04-03T12:24:46.537Z,0.80
2023-04-03T12:27:30.775Z,0.73
2023-04-03T12:30:04.811Z,0.63
2023-04-03T12:32:41.217Z,0.65
2023-04-03T12:35:23.090Z,0.77
2023-04-03T12:38:35.825Z,1.00
2023-04-03T12:41:22.268Z,0.88
2023-04-03T12:43:56.944Z,0.93
2023-04-03T12:46:27.255Z,0.57
2023-04-03T12:48:59.284Z,0.75
2023-04-03T12:51:40.978Z,0.77
2023-04-03T12:54:25.687Z,0.60
2023-04-03T12:56:52.470Z,0.75
2023-04-03T12:59:27.602Z,0.60
2023-04-03T13:01:56.628Z,0.70
2023-04-03T13:04:24.616Z,0.70
2023-04-03T13:06:52.019Z,0.73
2023-04-03T13:09:31.656Z,0.90
2023-04-03T13:12:12.485Z,0.47
2023-04-03T13:14:40.070Z,1.08
2023-04-03T13:17:17.717Z,0.65
2023-04-03T13:19:46.891Z,0.93
2023-04-03T13:22:40.246Z,0.75
2023-04-03T13:25:10.431Z,0.90
2023-04-03T13:27:40.309Z,1.17
2023-04-03T13:30:20.660Z,0.70
2023-04-03T13:32:47.463Z,0.75
2023-04-03T13:35:33.110Z,0.70
2023-04-03T13:38:03.717Z,0.68
2023-04-03T13:40:37.964Z,0.93
2023-04-03T13:43:24.227Z,0.60
2023-04-03T13:45:59.641Z,1.10
2023-04-03T13:51:13.127Z,0.60
2023-04-03T13:54:01.049Z,0.57
2023-04-03T13:56:38.581Z,0.80
2023-04-03T13:59:17.365Z,0.60
2023-04-03T14:01:50.510Z,0.90
2023-04-03T14:04:29.432Z,0.85
2023-04-03T14:06:56.763Z,0.70
2023-04-03T14:09:26.964Z,0.88
2023-04-03T14:11:58.124Z,0.75
2023-04-03T14:14:30.831Z,1.00
2023-04-03T14:17:00.990Z,0.90
2023-04-03T14:19:34.573Z,0.95
2023-04-03T14:22:23.222Z,0.70
2023-04-03T14:24:51.519Z,0.95
2023-04-03T14:27:20.171Z,0.95
2023-04-03T14:29:48.737Z,0.82
2023-04-03T14:32:17.582Z,0.70
2023-04-03T14:34:46.009Z,0.77
2023-04-03T14:37:20.192Z,0.80
2023-04-03T14:39:47.427Z,0.68
2023-04-03T14:42:17.819Z,0.95
2023-04-03T14:44:45.307Z,0.85
2023-04-03T14:47:23.269Z,1.00
2023-04-03T14:49:57.085Z,0.77
2023-04-03T14:52:28.102Z,0.80
2023-04-03T14:54:55.289Z,0.88
2023-04-03T14:57:25.948Z,0.70
2023-04-03T14:59:53.016Z,0.77
2023-04-03T15:02:30.589Z,0.82
2023-04-03T15:04:58.618Z,0.98
2023-04-03T15:07:27.744Z,0.82
2023-04-03T15:09:56.996Z,0.80
2023-04-03T15:12:25.169Z,1.05
2023-04-03T15:15:01.062Z,0.63
2023-04-03T15:17:28.542Z,1.15
2023-04-03T15:19:55.089Z,1.33
2023-04-03T15:22:21.789Z,0.80
2023-04-03T15:24:48.383Z,0.80
2023-04-03T15:27:16.235Z,0.90
2023-04-03T15:29:44.157Z,1.13
2023-04-03T15:32:11.567Z,1.25
2023-04-03T15:34:38.956Z,0.80
2023-04-03T15:37:06.398Z,1.17
2023-04-03T15:39:32.931Z,0.93
2023-04-03T15:42:06.847Z,0.70
2023-04-03T15:44:35.360Z,0.80
2023-04-03T15:47:02.581Z,0.80
2023-04-03T15:49:29.559Z,0.80
2023-04-03T15:51:56.273Z,1.15
2023-04-03T15:54:24.784Z,1.25
2023-04-03T15:56:51.524Z,1.17
2023-04-03T15:59:18.546Z,1.17
2023-04-03T16:01:45.637Z,1.10
2023-04-03T16:04:13.365Z,1.00
2023-04-03T16:06:41.999Z,1.25
2023-04-03T16:09:10.650Z,1.02
2023-04-03T16:11:39.936Z,0.90
2023-04-03T16:14:08.116Z,1.00
2023-04-03T16:16:34.814Z,1.00
2023-04-03T16:19:01.582Z,0.95
2023-04-03T16:21:29.146Z,0.90
2023-04-03T16:23:58.775Z,1.23
2023-04-03T16:26:26.157Z,1.05
2023-04-03T16:28:53.517Z,0.82
2023-04-03T16:31:20.972Z,1.05
2023-04-03T16:33:47.615Z,0.77
2023-04-03T16:36:14.337Z,1.20
2023-04-03T16:38:41.144Z,1.00
2023-04-03T16:41:07.700Z,1.00
2023-04-03T16:43:34.611Z,0.88
2023-04-03T16:46:03.032Z,0.90
2023-04-03T16:48:31.592Z,0.63
2023-04-03T16:50:58.307Z,0.90
2023-04-03T16:53:26.248Z,1.10
2023-04-03T16:55:53.138Z,1.00
2023-04-03T16:58:21.670Z,1.00
2023-04-03T17:00:49.081Z,0.88
2023-04-03T17:03:15.696Z,0.77
2023-04-03T17:05:42.306Z,1.02
2023-04-03T17:08:08.933Z,0.70
2023-04-03T17:10:36.340Z,0.80
2023-04-03T17:13:03.039Z,1.02
2023-04-03T17:15:29.527Z,0.85
2023-04-03T17:17:56.248Z,1.00
2023-04-03T17:20:23.148Z,0.80
2023-04-03T17:22:49.714Z,0.90
2023-04-03T17:25:16.599Z,1.05
2023-04-03T17:27:43.347Z,0.90
2023-04-03T17:30:10.611Z,1.00
2023-04-03T17:32:38.352Z,0.88
2023-04-03T17:35:05.467Z,0.90
2023-04-03T17:37:32.013Z,0.88
2023-04-03T17:39:58.565Z,0.88
2023-04-03T17:42:25.248Z,1.23
2023-04-03T17:44:51.824Z,1.42
2023-04-03T17:47:18.479Z,0.85
2023-04-03T17:49:45.084Z,0.88
2023-04-03T17:52:11.643Z,0.60
2023-04-03T17:54:38.190Z,0.88
2023-04-03T17:57:05.572Z,1.20
2023-04-03T17:59:32.673Z,0.85
2023-04-03T18:01:59.315Z,0.82
2023-04-03T18:04:26.003Z,0.88
2023-04-03T18:06:55.058Z,1.00
2023-04-03T18:09:32.410Z,1.10
2023-04-03T18:12:02.393Z,0.95
2023-04-03T18:14:29.386Z,0.95
2023-04-03T18:16:59.026Z,1.67
2023-04-03T18:19:27.777Z,1.17
2023-04-03T18:22:00.360Z,0.95
2023-04-03T18:24:27.408Z,1.23
2023-04-03T18:27:00.633Z,0.90
2023-04-03T18:29:30.799Z,0.80
2023-04-03T18:31:58.796Z,1.15
2023-04-03T18:34:25.622Z,0.60
2023-04-03T18:36:52.465Z,0.68
2023-04-03T18:39:19.297Z,1.45
2023-04-03T18:41:46.678Z,0.98
2023-04-03T18:44:18.396Z,1.10
2023-04-03T18:46:45.856Z,1.10
2023-04-03T18:49:13.565Z,0.98
2023-04-03T18:51:40.904Z,0.80
2023-04-03T18:54:09.582Z,0.95
2023-04-03T18:56:37.272Z,1.23
2023-04-03T18:59:04.583Z,0.95
2023-04-03T19:01:31.777Z,1.02
2023-04-03T19:03:58.517Z,1.13
2023-04-03T19:06:25.149Z,1.10
2023-04-03T19:08:51.890Z,0.80
2023-04-03T19:11:18.442Z,1.20
2023-04-03T19:13:46.841Z,1.42
2023-04-03T19:18:57.373Z,1.10
2023-04-03T19:21:23.931Z,1.45
2023-04-03T19:23:50.635Z,1.20
2023-04-03T19:26:17.247Z,1.13
2023-04-03T19:28:44.027Z,1.58
2023-04-03T19:31:13.888Z,1.45
2023-04-03T19:33:44.048Z,1.30
2023-04-03T19:36:11.469Z,1.02
2023-04-03T19:38:38.602Z,1.10
2023-04-03T19:41:22.570Z,1.42
2023-04-03T19:43:51.420Z,1.73
2023-04-03T19:46:21.506Z,1.60
2023-04-03T19:48:48.197Z,1.77
2023-04-03T19:51:14.756Z,1.80
2023-04-03T19:53:41.547Z,1.60
2023-04-03T19:56:08.144Z,1.50
2023-04-03T19:58:34.792Z,1.67
2023-04-03T20:01:01.445Z,1.42
2023-04-03T20:03:28.058Z,1.17
2023-04-03T20:05:57.594Z,1.33
2023-04-03T20:08:26.187Z,1.17
2023-04-03T20:10:52.726Z,1.35
2023-04-03T20:13:19.555Z,1.15
2023-04-03T20:15:46.097Z,1.33
2023-04-03T20:18:17.632Z,1.48
2023-04-03T20:20:59.290Z,1.27
2023-04-03T20:23:27.097Z,1.45
2023-04-03T20:26:06.607Z,1.60
2023-04-03T20:28:37.917Z,2.00
2023-04-03T20:31:04.931Z,1.60
2023-04-03T20:33:31.487Z,1.23
2023-04-03T20:35:58.429Z,1.27
2023-04-03T20:38:25.353Z,1.63
2023-04-03T20:40:52.231Z,1.20
2023-04-03T20:43:19.344Z,1.90
2023-04-03T20:45:46.019Z,1.67
2023-04-03T20:48:13.153Z,1.50
2023-04-03T20:50:41.080Z,1.67
2023-04-03T20:53:08.211Z,1.30
2023-04-03T20:55:35.135Z,1.40
2023-04-03T20:58:02.098Z,1.25
2023-04-03T21:00:31.522Z,1.30
2023-04-03T21:02:59.508Z,1.08
2023-04-03T21:05:28.957Z,1.70
2023-04-03T21:08:34.868Z,1.27
2023-04-03T21:11:39.300Z,1.38
2023-04-03T21:14:44.411Z,1.35
2023-04-03T21:17:10.960Z,1.20
2023-04-03T21:19:45.376Z,1.30
2023-04-03T21:22:13.528Z,1.50
2023-04-03T21:24:40.223Z,1.15
2023-04-03T21:27:06.792Z,1.23
2023-04-03T21:29:33.455Z,1.30
2023-04-03T21:32:01.508Z,1.42
2023-04-03T21:34:29.988Z,1.40
2023-04-03T21:37:01.217Z,1.35
2023-04-03T21:39:28.189Z,1.42
2023-04-03T21:41:54.855Z,1.17
2023-04-03T21:44:22.548Z,1.05
2023-04-03T21:46:53.637Z,1.33
2023-04-03T21:49:25.215Z,1.60
2023-04-03T21:51:52.362Z,1.40
2023-04-03T21:54:19.730Z,1.40
2023-04-03T21:56:48.033Z,1.45
2023-04-03T21:59:15.724Z,1.67
2023-04-03T22:01:42.921Z,1.35
2023-04-03T22:04:09.649Z,2.08
2023-04-03T22:06:37.546Z,1.58
2023-04-03T22:09:04.272Z,1.65
2023-04-03T22:11:31.093Z,1.42
2023-04-03T22:13:57.683Z,1.67
2023-04-03T22:16:24.495Z,1.30
2023-04-03T22:18:54.621Z,1.65
2023-04-03T22:21:21.925Z,1.90
2023-04-03T22:23:48.448Z,1.75
2023-04-03T22:26:15.173Z,1.65
2023-04-03T22:28:43.803Z,1.55
2023-04-03T22:31:14.100Z,1.48
2023-04-03T22:33:42.208Z,1.48
2023-04-03T22:36:10.676Z,1.92
2023-04-03T22:38:38.865Z,1.67
2023-04-03T22:41:07.740Z,1.88
2023-04-03T22:43:36.538Z,2.03
2023-04-03T22:46:05.436Z,1.70
2023-04-03T22:48:33.284Z,1.48
2023-04-03T22:51:01.009Z,1.40
2023-04-03T22:53:30.739Z,1.75
2023-04-03T22:55:58.535Z,1.67
2023-04-03T22:58:28.655Z,1.60
2023-04-03T23:01:09.730Z,1.50
2023-04-03T23:03:38.770Z,1.52
2023-04-03T23:06:06.667Z,1.77
2023-04-03T23:08:34.923Z,1.50
2023-04-03T23:11:02.090Z,1.48
2023-04-03T23:13:28.689Z,1.10
2023-04-03T23:16:00.681Z,1.35
2023-04-03T23:18:29.911Z,1.67
2023-04-03T23:20:58.519Z,1.80
2023-04-03T23:23:25.359Z,1.63
2023-04-03T23:25:53.009Z,1.40
2023-04-03T23:28:19.680Z,1.73
2023-04-03T23:30:46.706Z,1.52
2023-04-03T23:33:13.355Z,1.20
2023-04-03T23:35:48.240Z,1.67
2023-04-03T23:38:16.102Z,1.35
2023-04-03T23:40:43.163Z,2.10
2023-04-03T23:43:10.063Z,1.50
2023-04-03T23:45:37.237Z,1.90
2023-04-03T23:48:04.442Z,1.50
2023-04-03T23:50:31.100Z,1.88
2023-04-03T23:52:57.754Z,2.15
2023-04-03T23:55:24.324Z,1.73
2023-04-03T23:57:50.867Z,1.33
